createdAt,value
2023-04-19T00:00:22.510Z,99.90
2023-04-19T00:02:57.016Z,99.90
2023-04-19T00:05:28.360Z,99.90
2023-04-19T00:07:59.088Z,99.90
2023-04-19T00:10:30.428Z,99.90
2023-04-19T00:13:01.853Z,99.90
2023-04-19T00:15:32.986Z,99.90
2023-04-19T00:18:06.884Z,99.90
2023-04-19T00:20:37.572Z,99.90
2023-04-19T00:23:08.774Z,99.90
2023-04-19T00:25:40.425Z,99.90
2023-04-19T00:28:12.053Z,99.90
2023-04-19T00:30:43.503Z,99.90
2023-04-19T00:33:17.251Z,99.90
2023-04-19T00:35:48.438Z,99.90
2023-04-19T00:38:19.752Z,99.90
2023-04-19T00:40:50.936Z,99.90
2023-04-19T00:43:22.817Z,99.90
2023-04-19T00:45:54.554Z,99.90
2023-04-19T00:48:29.081Z,99.90
2023-04-19T00:51:00.342Z,99.90
2023-04-19T00:53:31.682Z,99.90
2023-04-19T00:56:08.104Z,99.90
2023-04-19T00:58:41.365Z,99.90
2023-04-19T01:01:13.785Z,99.90
2023-04-19T01:03:50.324Z,99.90
2023-04-19T01:06:23.339Z,99.90
2023-04-19T01:08:54.198Z,99.90
2023-04-19T01:11:27.604Z,99.90
2023-04-19T01:13:59.442Z,99.90
2023-04-19T01:16:30.548Z,99.90
2023-04-19T01:19:03.828Z,99.90
2023-04-19T01:21:34.484Z,99.90
2023-04-19T01:24:08.299Z,99.90
2023-04-19T01:26:39.045Z,99.90
2023-04-19T01:29:09.587Z,99.90
2023-04-19T01:31:42.028Z,99.90
2023-04-19T01:34:13.218Z,99.90
2023-04-19T01:36:43.676Z,99.90
2023-04-19T01:39:16.873Z,99.90
2023-04-19T01:41:47.700Z,99.90
2023-04-19T01:44:18.321Z,99.90
2023-04-19T01:46:49.134Z,99.90
2023-04-19T01:49:20.070Z,99.90
2023-04-19T01:51:51.036Z,99.90
2023-04-19T01:54:24.515Z,99.90
2023-04-19T01:56:55.450Z,99.90
2023-04-19T01:59:26.638Z,99.90
2023-04-19T02:01:57.690Z,99.90
2023-04-19T02:04:28.515Z,99.90
2023-04-19T02:06:59.356Z,99.90
2023-04-19T02:09:39.303Z,99.90
2023-04-19T02:12:10.939Z,99.90
2023-04-19T02:14:41.673Z,99.90
2023-04-19T02:17:13.340Z,99.90
2023-04-19T02:19:43.893Z,99.90
2023-04-19T02:22:15.043Z,99.90
2023-04-19T02:24:48.819Z,99.90
2023-04-19T02:27:19.791Z,99.90
2023-04-19T02:29:51.847Z,99.90
2023-04-19T02:32:22.849Z,99.90
2023-04-19T02:34:53.572Z,99.90
2023-04-19T02:37:24.573Z,99.90
2023-04-19T02:39:58.566Z,99.90
2023-04-19T02:42:29.944Z,99.90
2023-04-19T02:45:00.982Z,99.90
2023-04-19T02:47:31.686Z,99.90
2023-04-19T02:50:03.522Z,99.90
2023-04-19T02:52:37.416Z,99.90
2023-04-19T02:55:11.797Z,99.90
2023-04-19T02:57:42.861Z,99.90
2023-04-19T03:00:16.421Z,99.90
2023-04-19T03:03:04.428Z,99.90
2023-04-19T03:05:37.193Z,99.90
2023-04-19T03:08:08.539Z,99.90
2023-04-19T03:10:41.989Z,99.90
2023-04-19T03:13:15.187Z,99.90
2023-04-19T03:15:46.321Z,99.90
2023-04-19T03:18:17.526Z,99.90
2023-04-19T03:20:48.164Z,99.90
2023-04-19T03:23:18.877Z,99.90
2023-04-19T03:25:53.884Z,99.90
2023-04-19T03:28:44.568Z,99.90
2023-04-19T03:31:28.942Z,99.90
2023-04-19T03:33:59.389Z,99.90
2023-04-19T03:36:34.939Z,99.90
2023-04-19T03:39:06.791Z,99.90
2023-04-19T03:41:42.972Z,99.90
2023-04-19T03:44:36.207Z,99.90
2023-04-19T03:47:09.093Z,99.90
2023-04-19T03:49:45.567Z,99.90
2023-04-19T03:52:16.586Z,99.90
2023-04-19T03:54:48.429Z,99.90
2023-04-19T03:57:43.241Z,99.90
2023-04-19T04:00:21.909Z,99.90
2023-04-19T04:02:59.536Z,99.90
2023-04-19T04:05:31.498Z,99.90
2023-04-19T04:08:03.864Z,99.90
2023-04-19T04:10:35.258Z,99.90
2023-04-19T04:13:08.364Z,99.90
2023-04-19T04:15:46.830Z,99.90
2023-04-19T04:18:19.398Z,99.90
2023-04-19T04:20:50.069Z,99.90
2023-04-19T04:23:21.762Z,99.90
2023-04-19T04:26:01.414Z,99.90
2023-04-19T04:28:46.207Z,99.90
2023-04-19T04:31:18.401Z,99.90
2023-04-19T04:33:49.957Z,99.90
2023-04-19T04:36:23.682Z,99.90
2023-04-19T04:38:55.211Z,99.90
2023-04-19T04:41:25.700Z,99.90
2023-04-19T04:44:12.565Z,99.90
2023-04-19T04:46:45.572Z,99.90
2023-04-19T04:49:20.773Z,99.90
2023-04-19T04:51:51.354Z,99.90
2023-04-19T04:54:22.538Z,99.90
2023-04-19T04:56:53.230Z,99.90
2023-04-19T04:59:27.006Z,99.90
2023-04-19T05:01:57.499Z,99.90
2023-04-19T05:04:28.980Z,99.90
2023-04-19T05:06:59.449Z,99.90
2023-04-19T05:09:31.356Z,99.90
2023-04-19T05:12:02.520Z,99.90
2023-04-19T05:14:36.699Z,99.90
2023-04-19T05:17:07.640Z,99.90
2023-04-19T05:19:38.658Z,99.90
2023-04-19T05:22:11.506Z,99.90
2023-04-19T05:24:43.311Z,99.90
2023-04-19T05:27:14.348Z,99.90
2023-04-19T05:29:47.478Z,99.90
2023-04-19T05:32:19.453Z,99.90
2023-04-19T05:34:55.130Z,99.90
2023-04-19T05:37:27.407Z,99.90
2023-04-19T05:39:58.506Z,99.90
2023-04-19T05:42:29.202Z,99.90
2023-04-19T05:45:03.978Z,99.90
2023-04-19T05:47:36.259Z,99.90
2023-04-19T05:50:22.150Z,99.90
2023-04-19T05:53:12.525Z,99.90
2023-04-19T05:55:43.066Z,99.90
2023-04-19T05:58:13.836Z,99.90
2023-04-19T06:00:47.056Z,99.90
2023-04-19T06:03:21.234Z,99.90
2023-04-19T06:05:52.615Z,99.90
2023-04-19T06:08:23.373Z,99.90
2023-04-19T06:10:58.451Z,99.90
2023-04-19T06:13:33.843Z,99.90
2023-04-19T06:16:08.205Z,99.90
2023-04-19T06:18:46.820Z,99.90
2023-04-19T06:21:21.980Z,99.90
2023-04-19T06:23:52.628Z,99.90
2023-04-19T06:26:23.039Z,99.90
2023-04-19T06:28:53.585Z,99.90
2023-04-19T06:31:26.853Z,99.90
2023-04-19T06:33:57.302Z,99.90
2023-04-19T06:36:27.700Z,99.90
2023-04-19T06:39:02.129Z,99.90
2023-04-19T06:41:32.635Z,99.90
2023-04-19T06:44:03.326Z,99.90
2023-04-19T06:46:36.359Z,99.90
2023-04-19T06:49:06.850Z,99.90
2023-04-19T06:51:37.528Z,99.90
2023-04-19T06:54:08.100Z,99.90
2023-04-19T06:56:46.028Z,99.90
2023-04-19T06:59:17.605Z,99.90
2023-04-19T07:01:51.753Z,99.90
2023-04-19T07:04:22.830Z,99.90
2023-04-19T07:06:54.116Z,99.90
2023-04-19T07:09:24.706Z,99.90
2023-04-19T07:11:55.158Z,99.90
2023-04-19T07:14:25.640Z,99.90
2023-04-19T07:16:58.681Z,99.90
2023-04-19T07:19:29.434Z,99.90
2023-04-19T07:21:59.897Z,99.90
2023-04-19T07:24:30.729Z,99.90
2023-04-19T07:27:02.117Z,99.90
2023-04-19T07:29:32.687Z,99.90
2023-04-19T07:32:06.167Z,99.90
2023-04-19T07:34:36.644Z,99.90
2023-04-19T07:37:07.077Z,99.90
2023-04-19T07:39:37.704Z,99.90
2023-04-19T08:00:13.425Z,99.90
2023-04-19T08:02:48.073Z,99.90
2023-04-19T08:05:20.426Z,99.90
2023-04-19T08:07:51.607Z,99.90
2023-04-19T08:10:22.725Z,99.90
2023-04-19T08:13:05.278Z,99.90
2023-04-19T08:18:13.511Z,99.90
2023-04-19T08:20:45.290Z,99.90
2023-04-19T08:23:24.192Z,99.90
2023-04-19T08:25:56.506Z,99.90
2023-04-19T08:28:26.965Z,99.90
2023-04-19T08:31:01.813Z,99.90
2023-04-19T08:33:32.482Z,99.90
2023-04-19T08:36:02.963Z,99.90
2023-04-19T08:38:33.368Z,99.90
2023-04-19T08:41:04.674Z,99.90
2023-04-19T08:43:41.222Z,99.90
2023-04-19T08:46:15.512Z,99.90
2023-04-19T08:48:48.614Z,99.90
2023-04-19T08:51:20.632Z,99.90
2023-04-19T08:53:51.525Z,99.90
2023-04-19T08:56:34.469Z,99.90
2023-04-19T09:01:45.109Z,99.90
2023-04-19T09:04:35.628Z,99.90
2023-04-19T09:07:08.458Z,99.90
2023-04-19T09:09:55.493Z,99.90
2023-04-19T09:12:30.428Z,99.90
2023-04-19T09:15:02.523Z,99.90
2023-04-19T09:17:36.072Z,99.90
2023-04-19T09:20:07.942Z,99.90
2023-04-19T09:22:38.443Z,99.90
2023-04-19T09:25:37.778Z,99.90
2023-04-19T09:28:14.201Z,99.90
2023-04-19T09:30:57.017Z,99.90
2023-04-19T09:33:41.244Z,99.90
2023-04-19T09:36:14.696Z,99.90
2023-04-19T09:38:52.289Z,99.90
2023-04-19T09:41:22.751Z,99.90
2023-04-19T09:44:11.722Z,99.90
2023-04-19T09:46:45.881Z,99.90
2023-04-19T09:49:33.791Z,99.90
2023-04-19T09:52:13.294Z,99.90
2023-04-19T09:54:44.672Z,99.90
2023-04-19T09:57:15.795Z,99.90
2023-04-19T09:59:46.537Z,99.90
2023-04-19T10:02:18.016Z,99.90
2023-04-19T10:07:31.027Z,99.90
2023-04-19T10:10:16.035Z,99.90
2023-04-19T10:15:33.688Z,99.90
2023-04-19T10:18:10.938Z,99.90
2023-04-19T10:20:50.813Z,99.90
2023-04-19T10:23:21.671Z,99.90
2023-04-19T10:25:52.558Z,99.90
2023-04-19T10:28:22.926Z,99.90
2023-04-19T10:30:57.675Z,99.90
2023-04-19T10:33:31.338Z,99.90
2023-04-19T10:36:04.928Z,99.90
2023-04-19T10:38:41.629Z,99.90
2023-04-19T10:41:17.589Z,99.90
2023-04-19T10:43:50.279Z,99.90
2023-04-19T10:46:40.969Z,99.90
2023-04-19T10:49:13.933Z,99.90
2023-04-19T10:51:55.155Z,99.90
2023-04-19T10:54:33.104Z,99.90
2023-04-19T10:57:05.957Z,99.90
2023-04-19T10:59:37.336Z,99.90
2023-04-19T11:02:08.696Z,99.90
2023-04-19T11:05:04.538Z,99.90
2023-04-19T11:07:48.925Z,99.90
2023-04-19T11:10:32.178Z,99.90
2023-04-19T11:13:03.546Z,99.90
2023-04-19T11:15:34.001Z,99.90
2023-04-19T11:18:12.690Z,99.90
2023-04-19T11:20:46.644Z,99.90
2023-04-19T11:23:22.877Z,99.90
2023-04-19T11:25:55.238Z,99.90
2023-04-19T11:28:25.776Z,99.90
2023-04-19T11:30:58.095Z,99.90
2023-04-19T11:33:29.036Z,99.90
2023-04-19T11:35:59.410Z,99.90
2023-04-19T11:38:34.067Z,99.90
2023-04-19T11:41:08.592Z,99.90
2023-04-19T11:43:41.362Z,99.90
2023-04-19T11:46:13.526Z,99.90
2023-04-19T11:48:55.561Z,99.90
2023-04-19T11:51:27.292Z,99.90
2023-04-19T11:54:00.427Z,99.90
2023-04-19T11:56:31.159Z,99.90
2023-04-19T11:59:01.771Z,99.90
2023-04-19T12:01:32.707Z,99.90
2023-04-19T12:04:03.288Z,99.90
2023-04-19T12:06:34.717Z,99.90
2023-04-19T12:09:11.803Z,99.90
2023-04-19T12:11:49.221Z,99.90
2023-04-19T12:14:22.512Z,99.90
2023-04-19T12:17:08.920Z,99.90
2023-04-19T12:19:40.928Z,99.90
2023-04-19T12:22:12.733Z,99.90
2023-04-19T12:24:46.555Z,99.90
2023-04-19T12:27:21.098Z,99.90
2023-04-19T12:29:51.617Z,99.90
2023-04-19T12:32:22.415Z,99.90
2023-04-19T12:34:53.223Z,99.90
2023-04-19T12:37:23.710Z,99.90
2023-04-19T12:39:56.803Z,99.90
2023-04-19T12:42:27.527Z,99.90
2023-04-19T12:44:58.040Z,99.90
2023-04-19T12:47:28.558Z,99.90
2023-04-19T12:49:59.233Z,99.90
2023-04-19T12:52:29.811Z,99.90
2023-04-19T12:55:02.821Z,99.90
2023-04-19T12:57:33.338Z,99.90
2023-04-19T13:00:04.929Z,99.90
2023-04-19T13:02:38.046Z,99.60
2023-04-19T13:05:09.799Z,99.90
2023-04-19T13:07:40.409Z,98.00
2023-04-19T13:10:14.020Z,99.90
2023-04-19T13:12:45.253Z,98.50
2023-04-19T13:15:16.060Z,98.10
2023-04-19T13:17:46.728Z,99.20
2023-04-19T13:20:17.636Z,99.20
2023-04-19T13:22:48.165Z,98.80
2023-04-19T13:25:21.212Z,95.50
2023-04-19T13:27:51.972Z,94.80
2023-04-19T13:30:22.634Z,95.50
2023-04-19T13:32:53.720Z,96.00
2023-04-19T13:35:24.438Z,92.40
2023-04-19T13:37:54.882Z,94.10
2023-04-19T13:40:28.145Z,91.00
2023-04-19T13:42:58.717Z,90.70
2023-04-19T13:45:29.536Z,90.50
2023-04-19T13:48:00.436Z,89.70
2023-04-19T13:50:31.691Z,91.60
2023-04-19T13:53:02.734Z,90.50
2023-04-19T13:55:37.156Z,88.70
2023-04-19T13:58:08.153Z,88.50
2023-04-19T14:00:39.995Z,90.00
2023-04-19T14:03:11.168Z,90.70
2023-04-19T14:05:42.146Z,87.00
2023-04-19T14:08:12.745Z,87.70
2023-04-19T14:10:45.900Z,88.30
2023-04-19T14:13:16.574Z,89.60
2023-04-19T14:15:47.046Z,83.70
2023-04-19T14:18:17.520Z,85.70
2023-04-19T14:20:48.109Z,85.50
2023-04-19T14:23:19.154Z,81.30
2023-04-19T14:25:52.513Z,84.40
2023-04-19T14:28:23.023Z,85.50
2023-04-19T14:30:53.670Z,84.50
2023-04-19T14:33:24.365Z,81.20
2023-04-19T14:35:55.400Z,84.40
2023-04-19T14:38:26.115Z,81.90
2023-04-19T14:40:59.465Z,85.60
2023-04-19T14:43:30.108Z,83.30
2023-04-19T14:46:00.615Z,82.60
2023-04-19T14:48:31.268Z,85.40
2023-04-19T14:51:02.057Z,81.40
2023-04-19T14:53:33.923Z,81.80
2023-04-19T14:56:10.414Z,83.10
2023-04-19T14:58:40.983Z,80.10
2023-04-19T15:01:15.219Z,78.20
2023-04-19T15:03:45.919Z,77.80
2023-04-19T15:06:16.805Z,77.80
2023-04-19T15:08:47.367Z,74.50
2023-04-19T15:11:20.665Z,73.10
2023-04-19T15:13:51.369Z,73.80
2023-04-19T15:16:21.946Z,72.90
2023-04-19T15:18:52.609Z,74.90
2023-04-19T15:21:24.878Z,78.90
2023-04-19T15:23:55.682Z,71.70
2023-04-19T15:26:28.973Z,72.90
2023-04-19T15:29:00.854Z,76.70
2023-04-19T15:31:31.346Z,72.30
2023-04-19T15:34:04.775Z,73.60
2023-04-19T15:36:35.366Z,72.90
2023-04-19T15:39:06.184Z,73.40
2023-04-19T15:41:39.684Z,74.70
2023-04-19T15:44:10.139Z,71.40
2023-04-19T15:46:40.558Z,74.90
2023-04-19T15:49:11.039Z,73.30
2023-04-19T15:51:41.719Z,70.90
2023-04-19T15:54:13.149Z,68.80
2023-04-19T15:56:46.291Z,72.50
2023-04-19T15:59:17.016Z,70.90
2023-04-19T16:01:48.000Z,69.90
2023-04-19T16:04:19.142Z,71.70
2023-04-19T16:06:49.869Z,69.80
2023-04-19T16:09:20.497Z,71.00
2023-04-19T16:11:53.820Z,70.10
2023-04-19T16:14:24.387Z,72.40
2023-04-19T16:16:54.988Z,72.00
2023-04-19T16:19:25.643Z,69.70
2023-04-19T16:21:56.266Z,71.60
2023-04-19T16:24:26.731Z,70.40
2023-04-19T16:27:01.431Z,68.60
2023-04-19T16:29:31.919Z,68.80
2023-04-19T16:32:02.394Z,67.20
2023-04-19T16:34:32.891Z,71.40
2023-04-19T16:37:03.379Z,70.70
2023-04-19T16:39:33.809Z,68.60
2023-04-19T16:42:07.161Z,69.90
2023-04-19T16:44:37.653Z,70.60
2023-04-19T16:47:08.215Z,72.70
2023-04-19T16:49:38.621Z,72.30
2023-04-19T16:52:09.241Z,71.40
2023-04-19T16:54:40.217Z,73.40
2023-04-19T16:57:13.314Z,69.90
2023-04-19T16:59:43.786Z,69.90
2023-04-19T17:02:17.598Z,69.60
2023-04-19T17:04:48.398Z,68.50
2023-04-19T17:07:19.003Z,71.20
2023-04-19T17:09:50.068Z,70.30
2023-04-19T17:12:23.151Z,71.60
2023-04-19T17:14:53.704Z,72.20
2023-04-19T17:17:24.831Z,72.30
2023-04-19T17:19:56.876Z,70.90
2023-04-19T17:22:27.520Z,71.30
2023-04-19T17:24:59.193Z,71.20
2023-04-19T17:27:32.299Z,71.40
2023-04-19T17:30:02.756Z,72.00
2023-04-19T17:32:33.466Z,73.70
2023-04-19T17:35:04.338Z,72.60
2023-04-19T17:37:34.948Z,73.80
2023-04-19T17:40:05.360Z,73.00
2023-04-19T17:42:38.421Z,74.20
2023-04-19T17:45:11.331Z,73.70
2023-04-19T17:47:42.267Z,73.60
2023-04-19T17:50:15.324Z,74.00
2023-04-19T17:52:45.797Z,73.70
2023-04-19T17:55:17.145Z,73.60
2023-04-19T17:57:51.784Z,74.50
2023-04-19T18:00:23.612Z,73.10
2023-04-19T18:02:54.220Z,73.10
2023-04-19T18:05:25.048Z,72.40
2023-04-19T18:07:55.595Z,72.40
2023-04-19T18:10:26.006Z,73.70
2023-04-19T18:12:59.089Z,74.30
2023-04-19T18:15:29.687Z,74.50
2023-04-19T18:18:00.194Z,76.30
2023-04-19T18:20:30.609Z,76.80
2023-04-19T18:23:01.893Z,76.00
2023-04-19T18:25:37.193Z,75.80
2023-04-19T18:28:10.295Z,76.30
2023-04-19T18:30:41.113Z,74.30
2023-04-19T18:33:11.639Z,75.40
2023-04-19T18:35:42.146Z,76.10
2023-04-19T18:38:12.997Z,76.00
2023-04-19T18:40:43.856Z,77.30
2023-04-19T18:43:17.053Z,76.80
2023-04-19T18:45:47.531Z,77.40
2023-04-19T18:48:18.021Z,77.90
2023-04-19T18:50:48.467Z,76.50
2023-04-19T18:53:19.064Z,77.60
2023-04-19T18:55:53.006Z,77.80
2023-04-19T18:58:26.160Z,79.70
2023-04-19T19:00:57.159Z,78.50
2023-04-19T19:06:01.726Z,77.70
2023-04-19T19:08:32.452Z,78.90
2023-04-19T19:13:38.997Z,79.10
2023-04-19T19:16:09.694Z,79.50
2023-04-19T19:18:40.180Z,79.40
2023-04-19T19:21:10.630Z,79.60
2023-04-19T19:23:42.630Z,81.10
2023-04-19T19:26:15.089Z,80.90
2023-04-19T19:28:48.185Z,79.50
2023-04-19T19:31:18.727Z,80.80
2023-04-19T19:33:53.675Z,81.30
2023-04-19T19:36:34.672Z,81.20
2023-04-19T19:39:05.794Z,81.50
2023-04-19T19:42:04.217Z,81.60
2023-04-19T19:44:29.861Z,81.00
2023-04-19T19:47:00.460Z,81.50
2023-04-19T19:52:03.371Z,80.70
2023-04-19T19:54:33.871Z,82.10
2023-04-19T19:59:40.562Z,81.50
2023-04-19T20:02:11.625Z,81.60
2023-04-19T20:04:42.733Z,80.70
2023-04-19T20:09:50.892Z,81.10
2023-04-19T20:12:21.342Z,81.20
2023-04-19T20:14:54.523Z,79.80
2023-04-19T20:17:25.021Z,79.60
2023-04-19T20:19:56.783Z,79.30
2023-04-19T20:22:27.322Z,79.90
2023-04-19T20:24:57.903Z,79.40
2023-04-19T20:27:28.494Z,79.10
2023-04-19T20:30:01.595Z,78.70
2023-04-19T20:32:34.839Z,77.80
2023-04-19T20:35:08.572Z,78.40
2023-04-19T20:37:42.740Z,77.70
2023-04-19T20:40:15.298Z,77.30
2023-04-19T20:42:48.456Z,77.80
2023-04-19T20:45:21.609Z,77.70
2023-04-19T20:47:52.276Z,77.10
2023-04-19T20:50:22.986Z,78.90
2023-04-19T20:52:53.502Z,77.60
2023-04-19T20:55:24.081Z,78.70
2023-04-19T20:57:54.659Z,78.50
2023-04-19T21:00:27.741Z,77.70
2023-04-19T21:02:58.230Z,77.60
2023-04-19T21:05:29.125Z,77.20
2023-04-19T21:07:59.498Z,77.90
2023-04-19T21:10:29.972Z,77.40
2023-04-19T21:13:00.436Z,77.40
2023-04-19T21:15:33.544Z,78.10
2023-04-19T21:18:04.056Z,78.70
2023-04-19T21:20:34.645Z,79.90
2023-04-19T21:23:05.091Z,78.00
2023-04-19T21:25:35.629Z,77.10
2023-04-19T21:28:06.025Z,78.20
2023-04-19T21:30:41.127Z,77.40
2023-04-19T21:33:11.701Z,78.00
2023-04-19T21:35:42.485Z,79.30
2023-04-19T21:38:12.890Z,79.00
2023-04-19T21:40:43.353Z,78.90
2023-04-19T21:43:13.845Z,78.90
2023-04-19T21:45:46.837Z,79.10
2023-04-19T21:48:17.390Z,80.00
2023-04-19T21:50:47.888Z,79.20
2023-04-19T21:53:18.405Z,79.30
2023-04-19T21:55:51.592Z,80.00
2023-04-19T21:58:22.188Z,79.60
2023-04-19T22:00:56.487Z,80.20
2023-04-19T22:03:27.362Z,80.30
2023-04-19T22:06:02.065Z,80.90
2023-04-19T22:08:33.005Z,81.30
2023-04-19T22:11:03.864Z,80.00
2023-04-19T22:13:34.588Z,82.00
2023-04-19T22:16:08.612Z,81.00
2023-04-19T22:32:22.323Z,81.20
2023-04-19T22:34:53.143Z,81.80
2023-04-19T22:37:23.610Z,82.40
2023-04-19T22:39:54.055Z,81.50
2023-04-19T22:42:25.272Z,81.70
2023-04-19T22:44:55.715Z,82.40
2023-04-19T22:47:28.812Z,83.10
2023-04-19T22:49:59.515Z,82.80
2023-04-19T22:52:30.200Z,83.00
2023-04-19T22:55:00.678Z,83.10
2023-04-19T22:57:31.248Z,83.80
2023-04-19T23:00:01.673Z,82.80
2023-04-19T23:02:34.782Z,83.00
2023-04-19T23:05:05.334Z,83.20
2023-04-19T23:07:35.903Z,84.10
2023-04-19T23:10:06.674Z,83.60
2023-04-19T23:12:37.426Z,83.70
2023-04-19T23:15:11.210Z,84.20
2023-04-19T23:17:45.118Z,83.50
2023-04-19T23:20:16.059Z,84.10
2023-04-19T23:22:46.516Z,83.80
2023-04-19T23:25:16.948Z,84.80
2023-04-19T23:27:47.489Z,84.20
2023-04-19T23:30:18.459Z,84.70
2023-04-19T23:32:51.532Z,84.90
2023-04-19T23:35:22.011Z,84.60
2023-04-19T23:37:52.440Z,84.10
2023-04-19T23:40:23.349Z,84.40
2023-04-19T23:42:53.877Z,84.90
2023-04-19T23:45:24.593Z,85.00
2023-04-19T23:47:57.696Z,84.60
2023-04-19T23:50:28.344Z,85.40
2023-04-19T23:52:58.786Z,85.40
2023-04-19T23:55:29.126Z,86.50
2023-04-19T23:57:59.504Z,86.60
